In Rescue
 
Open Full Screen Window  High Contrast Mode
Wind Gusting 00 knots
12
December 15, 2019 3:15 PM PST
Weather Information
Wind Direction
  320 °
Wind Speed
  12 kt (14 mph)
Wind Gust
  00 kt (0 mph)
Altimeter
30.21 in
Visibility
10 SM
Temperature
13° C
55° F
Dewpoint
05° C
41° F
Humidity
59%
1hr Rain Fall
00.00 in.
24hr Rain Fall
00.00 in.
Sky Condition
Clear
VFR

METAR KCVH 152315Z AUTO 32012KT 10SM CLR 13/05 A3021 RMK A01

FAA Disclaimer: The data displayed is for advisory purposes only and is not to be used for flight planning or operations.